createdAt,value
2018-06-01T00:00:50.188Z,0.00
2018-06-01T00:01:50.291Z,4.00
2018-06-01T00:02:50.192Z,4.00
2018-06-01T00:03:50.152Z,4.00
2018-06-01T00:04:50.116Z,4.00
2018-06-01T00:05:50.120Z,4.00
2018-06-01T00:06:50.203Z,4.00
2018-06-01T00:07:50.084Z,4.00
2018-06-01T00:08:50.118Z,0.00
2018-06-01T00:09:50.845Z,0.00
2018-06-01T00:10:50.072Z,0.00
2018-06-01T00:11:50.076Z,4.00
2018-06-01T00:12:50.136Z,4.00
2018-06-01T00:13:50.013Z,4.00
2018-06-01T00:14:50.221Z,4.00
2018-06-01T00:15:50.857Z,4.00
2018-06-01T00:16:50.007Z,4.00
2018-06-01T00:17:49.983Z,4.00
2018-06-01T00:18:50.037Z,4.00
2018-06-01T00:19:49.926Z,4.00
2018-06-01T00:20:49.938Z,8.00
2018-06-01T00:21:50.143Z,4.00
2018-06-01T00:22:50.125Z,4.00
2018-06-01T00:23:49.988Z,8.00
2018-06-01T00:24:49.985Z,8.00
2018-06-01T00:25:50.037Z,8.00
2018-06-01T00:26:50.097Z,8.00
2018-06-01T00:27:49.922Z,8.00
2018-06-01T00:28:49.890Z,8.00
2018-06-01T00:29:50.573Z,12.00
2018-06-01T00:30:57.453Z,12.00
2018-06-01T00:32:43.190Z,12.00
2018-06-01T00:33:43.397Z,12.00
2018-06-01T00:35:36.517Z,16.00
2018-06-01T00:36:36.565Z,16.00
2018-06-01T00:38:30.245Z,20.00
2018-06-01T00:39:30.257Z,20.00
2018-06-01T00:40:30.361Z,20.00
2018-06-01T00:41:30.263Z,24.00
2018-06-01T00:42:30.240Z,24.00
2018-06-01T00:43:30.177Z,28.00
2018-06-01T00:44:30.180Z,32.00
2018-06-01T00:45:30.171Z,28.00
2018-06-01T00:46:30.118Z,32.00
2018-06-01T00:47:30.150Z,36.00
2018-06-01T00:48:30.150Z,36.00
2018-06-01T00:49:30.117Z,44.00
2018-06-01T00:50:30.121Z,44.00
2018-06-01T00:51:30.137Z,48.00
2018-06-01T00:52:30.133Z,48.00
2018-06-01T00:53:30.081Z,52.00
2018-06-01T00:54:30.099Z,56.00
2018-06-01T00:55:30.067Z,60.00
2018-06-01T00:56:30.073Z,64.00
2018-06-01T00:57:30.858Z,72.00
2018-06-01T00:58:30.080Z,72.00
2018-06-01T00:59:30.054Z,80.00
2018-06-01T01:00:31.006Z,84.00
2018-06-01T01:01:30.054Z,92.00
2018-06-01T01:02:29.998Z,96.00
2018-06-01T01:03:29.991Z,100.00
2018-06-01T01:04:29.996Z,108.00
2018-06-01T01:05:30.028Z,112.00
2018-06-01T01:06:30.003Z,120.00
2018-06-01T01:07:29.948Z,128.00
2018-06-01T01:08:30.179Z,132.00
2018-06-01T01:09:29.942Z,144.00
2018-06-01T01:10:29.918Z,152.00
2018-06-01T01:11:29.918Z,160.00
2018-06-01T01:12:29.884Z,164.00
2018-06-01T01:13:29.942Z,176.00
2018-06-01T01:14:29.904Z,184.00
2018-06-01T01:15:30.470Z,196.00
2018-06-01T01:16:29.945Z,204.00
2018-06-01T01:17:29.807Z,212.00
2018-06-01T01:18:29.805Z,224.00
2018-06-01T01:19:29.829Z,236.00
2018-06-01T01:20:29.781Z,248.00
2018-06-01T01:21:29.770Z,260.00
2018-06-01T01:22:29.794Z,272.00
2018-06-01T01:23:29.826Z,284.00
2018-06-01T01:24:29.828Z,296.00
2018-06-01T01:25:29.748Z,308.00
2018-06-01T01:26:29.811Z,320.00
2018-06-01T01:27:29.750Z,332.00
2018-06-01T01:28:29.745Z,348.00
2018-06-01T01:29:29.782Z,360.00
2018-06-01T01:30:29.758Z,376.00
2018-06-01T01:31:29.738Z,392.00
2018-06-01T01:32:29.751Z,408.00
2018-06-01T01:33:29.731Z,420.00
2018-06-01T01:34:29.701Z,436.00
2018-06-01T01:35:29.670Z,448.00
2018-06-01T01:36:29.728Z,468.00
2018-06-01T01:37:30.498Z,484.00
2018-06-01T01:38:29.626Z,500.00
2018-06-01T01:39:29.705Z,512.00
2018-06-01T01:40:29.599Z,532.00
2018-06-01T01:41:29.587Z,548.00
2018-06-01T01:42:29.625Z,564.00
2018-06-01T01:43:29.598Z,580.00
2018-06-01T01:44:29.674Z,600.00
2018-06-01T01:45:29.584Z,616.00
2018-06-01T01:46:29.579Z,632.00
2018-06-01T01:47:29.525Z,648.00
2018-06-01T01:48:29.591Z,668.00
2018-06-01T01:49:29.585Z,680.00
2018-06-01T01:50:29.582Z,700.00
2018-06-01T01:51:29.500Z,720.00
2018-06-01T01:52:29.468Z,732.00
2018-06-01T01:53:29.477Z,752.00
2018-06-01T01:54:29.479Z,768.00
2018-06-01T01:55:29.497Z,784.00
2018-06-01T01:56:29.521Z,804.00
2018-06-01T01:57:29.497Z,820.00
2018-06-01T01:58:29.434Z,836.00
2018-06-01T01:59:29.500Z,856.00
2018-06-01T02:00:29.986Z,872.00
2018-06-01T02:01:29.393Z,888.00
2018-06-01T02:02:29.465Z,908.00
2018-06-01T02:03:29.386Z,924.00
2018-06-01T02:04:29.369Z,940.00
2018-06-01T02:05:29.357Z,956.00
2018-06-01T02:06:29.955Z,976.00
2018-06-01T02:07:29.373Z,996.00
2018-06-01T02:08:29.417Z,1008.00
2018-06-01T02:09:29.281Z,1024.00
2018-06-01T02:10:29.320Z,1044.00
2018-06-01T02:11:29.308Z,1060.00
2018-06-01T02:12:29.323Z,1076.00
2018-06-01T02:13:29.255Z,1096.00
2018-06-01T02:14:29.245Z,1112.00
2018-06-01T02:15:29.316Z,1124.00
2018-06-01T02:16:29.313Z,1140.00
2018-06-01T02:17:29.277Z,1160.00
2018-06-01T02:18:29.341Z,1172.00
2018-06-01T02:19:29.239Z,1192.00
2018-06-01T02:20:29.202Z,1208.00
2018-06-01T02:21:29.163Z,1224.00
2018-06-01T02:22:29.311Z,1236.00
2018-06-01T02:23:29.167Z,1256.00
2018-06-01T02:24:29.254Z,1268.00
2018-06-01T02:25:29.130Z,1284.00
2018-06-01T02:26:29.189Z,1300.00
2018-06-01T02:27:29.124Z,1316.00
2018-06-01T02:28:29.162Z,1328.00
2018-06-01T02:29:29.088Z,1344.00
2018-06-01T02:30:29.283Z,1356.00
2018-06-01T02:31:29.061Z,1372.00
2018-06-01T02:32:29.209Z,1388.00
2018-06-01T02:33:29.157Z,1404.00
2018-06-01T02:34:29.065Z,1416.00
2018-06-01T02:35:29.213Z,1432.00
2018-06-01T02:36:29.175Z,1444.00
2018-06-01T02:37:29.275Z,1460.00
2018-06-01T02:38:30.164Z,1472.00
2018-06-01T02:39:29.074Z,1480.00
2018-06-01T02:40:29.267Z,1496.00
2018-06-01T02:41:36.131Z,1508.00
2018-06-01T02:42:29.128Z,1524.00
2018-06-01T02:43:29.502Z,1536.00
2018-06-01T02:44:29.143Z,1552.00
2018-06-01T02:45:29.095Z,1560.00
2018-06-01T02:46:28.994Z,1576.00
2018-06-01T02:47:29.492Z,1588.00
2018-06-01T02:48:28.965Z,1600.00
2018-06-01T02:49:30.048Z,1612.00
2018-06-01T02:50:28.915Z,1624.00
2018-06-01T02:51:37.689Z,1636.00
2018-06-01T02:53:21.854Z,1660.00
2018-06-01T02:54:21.811Z,1672.00
2018-06-01T02:55:21.804Z,1680.00
2018-06-01T02:56:21.841Z,1692.00
2018-06-01T02:57:21.840Z,1704.00
2018-06-01T02:58:21.783Z,1716.00
2018-06-01T02:59:21.721Z,1732.00
2018-06-01T03:00:21.757Z,1740.00
2018-06-01T03:01:21.894Z,1752.00
2018-06-01T03:02:21.732Z,1764.00
2018-06-01T03:03:21.756Z,1776.00
2018-06-01T03:04:21.761Z,1788.00
2018-06-01T03:05:21.721Z,1800.00
2018-06-01T03:06:21.692Z,1812.00
2018-06-01T03:07:21.894Z,1824.00
2018-06-01T03:08:21.657Z,1836.00
2018-06-01T03:09:21.667Z,1848.00
2018-06-01T03:10:21.612Z,1860.00
2018-06-01T03:11:21.623Z,1876.00
2018-06-01T03:12:21.633Z,1884.00
2018-06-01T03:13:21.747Z,1900.00
2018-06-01T03:14:21.615Z,1912.00
2018-06-01T03:15:21.616Z,1924.00
2018-06-01T03:16:21.543Z,1936.00
2018-06-01T03:17:21.635Z,1952.00
2018-06-01T03:18:21.585Z,1964.00
2018-06-01T03:19:21.594Z,1980.00
2018-06-01T03:20:22.154Z,1996.00
2018-06-01T03:21:21.527Z,2012.00
2018-06-01T03:22:22.362Z,2028.00
2018-06-01T03:23:21.532Z,2044.00
2018-06-01T03:24:21.602Z,2060.00
2018-06-01T03:25:21.843Z,2084.00
2018-06-01T03:27:54.117Z,2120.00
2018-06-01T03:28:54.112Z,2136.00
2018-06-01T03:30:48.520Z,2164.00
2018-06-01T03:31:47.657Z,2176.00
2018-06-01T03:32:47.551Z,2188.00
2018-06-01T03:33:47.675Z,2196.00
2018-06-01T03:34:47.613Z,2212.00
2018-06-01T03:35:47.759Z,2224.00
2018-06-01T03:36:47.597Z,2236.00
2018-06-01T03:37:47.495Z,2248.00
2018-06-01T03:38:47.643Z,2260.00
2018-06-01T03:39:47.620Z,2268.00
2018-06-01T03:40:47.590Z,2284.00
2018-06-01T03:41:47.522Z,2288.00
2018-06-01T03:42:47.461Z,2300.00
2018-06-01T03:43:47.513Z,2308.00
2018-06-01T03:44:47.509Z,2312.00
2018-06-01T03:45:47.520Z,2320.00
2018-06-01T03:46:47.469Z,2328.00
2018-06-01T03:47:47.593Z,2336.00
2018-06-01T03:48:47.439Z,2344.00
2018-06-01T03:49:47.477Z,2344.00
2018-06-01T03:50:47.492Z,2352.00
2018-06-01T03:51:47.454Z,2356.00
2018-06-01T03:52:47.405Z,2364.00
2018-06-01T03:53:47.463Z,2368.00
2018-06-01T03:54:47.394Z,2368.00
2018-06-01T03:55:47.349Z,2372.00
2018-06-01T03:56:47.467Z,2384.00
2018-06-01T03:57:47.465Z,2388.00
2018-06-01T03:58:47.457Z,2392.00
2018-06-01T03:59:47.573Z,2396.00
2018-06-01T04:00:47.429Z,2404.00
2018-06-01T04:01:47.391Z,2412.00
2018-06-01T04:02:47.486Z,2420.00
2018-06-01T04:03:48.053Z,2424.00
2018-06-01T04:04:48.102Z,2424.00
2018-06-01T04:05:47.358Z,2432.00
2018-06-01T04:06:47.294Z,2436.00
2018-06-01T04:07:47.351Z,2448.00
2018-06-01T04:08:47.278Z,2452.00
2018-06-01T04:09:47.394Z,2460.00
2018-06-01T04:10:47.283Z,2464.00
2018-06-01T04:11:47.239Z,2476.00
2018-06-01T04:12:47.343Z,2480.00
2018-06-01T04:13:47.367Z,2488.00
2018-06-01T04:14:47.290Z,2492.00
2018-06-01T04:15:47.316Z,2504.00
2018-06-01T04:16:47.229Z,2508.00
2018-06-01T04:17:47.252Z,2520.00
2018-06-01T04:18:47.195Z,2528.00
2018-06-01T04:19:48.053Z,2540.00
2018-06-01T04:20:47.198Z,2548.00
2018-06-01T04:21:47.258Z,2556.00
2018-06-01T04:22:47.267Z,2568.00
2018-06-01T04:23:47.288Z,2576.00
2018-06-01T04:24:47.137Z,2588.00
2018-06-01T04:25:47.416Z,2592.00
2018-06-01T04:26:47.138Z,2596.00
2018-06-01T04:27:47.325Z,2604.00
2018-06-01T04:28:47.126Z,2612.00
2018-06-01T04:29:47.183Z,2616.00
2018-06-01T04:30:47.134Z,2628.00
2018-06-01T04:31:47.193Z,2632.00
2018-06-01T04:32:47.154Z,2636.00
2018-06-01T04:33:47.015Z,2640.00
2018-06-01T04:34:47.048Z,2644.00
2018-06-01T04:35:47.171Z,2648.00
2018-06-01T04:36:47.103Z,2652.00
2018-06-01T04:37:47.016Z,2660.00
2018-06-01T04:38:47.037Z,2664.00
2018-06-01T04:39:47.017Z,2668.00
2018-06-01T04:40:47.007Z,2668.00
2018-06-01T04:41:46.986Z,2676.00
2018-06-01T04:42:47.089Z,2680.00
2018-06-01T04:43:46.992Z,2684.00
2018-06-01T04:44:47.034Z,2684.00
2018-06-01T04:45:46.935Z,2692.00
2018-06-01T04:46:47.491Z,2692.00
2018-06-01T04:47:47.036Z,2704.00
2018-06-01T04:48:46.999Z,2704.00
2018-06-01T04:49:46.892Z,2704.00
2018-06-01T04:50:46.924Z,2712.00
2018-06-01T04:51:47.084Z,2720.00
2018-06-01T04:52:46.865Z,2724.00
2018-06-01T04:53:46.980Z,2728.00
2018-06-01T04:54:46.959Z,2732.00
2018-06-01T04:55:46.849Z,2740.00
2018-06-01T04:56:46.905Z,2744.00
2018-06-01T04:57:46.992Z,2752.00
2018-06-01T04:58:46.922Z,2760.00
2018-06-01T04:59:46.934Z,2764.00
2018-06-01T05:00:46.933Z,2780.00
2018-06-01T05:01:46.769Z,2788.00
2018-06-01T05:02:46.797Z,2788.00
2018-06-01T05:03:46.832Z,2800.00
2018-06-01T05:04:46.802Z,2808.00
2018-06-01T05:05:46.736Z,2816.00
2018-06-01T05:06:46.839Z,2824.00
2018-06-01T05:07:46.758Z,2828.00
2018-06-01T05:08:46.857Z,2836.00
2018-06-01T05:09:46.751Z,2844.00
2018-06-01T05:10:46.791Z,2852.00
2018-06-01T05:11:46.819Z,2856.00
2018-06-01T05:12:46.811Z,2868.00
2018-06-01T05:13:46.755Z,2868.00
2018-06-01T05:14:46.784Z,2876.00
2018-06-01T05:15:46.686Z,2888.00
2018-06-01T05:16:46.739Z,2892.00
2018-06-01T05:17:47.061Z,2896.00
2018-06-01T05:18:46.711Z,2904.00
2018-06-01T05:19:46.810Z,2904.00
2018-06-01T05:20:46.832Z,2912.00
2018-06-01T05:21:46.708Z,2920.00
2018-06-01T05:22:46.734Z,2920.00
2018-06-01T05:23:46.793Z,2928.00
2018-06-01T05:24:46.698Z,2932.00
2018-06-01T05:25:46.700Z,2936.00
2018-06-01T05:26:48.625Z,2940.00
2018-06-01T05:27:46.661Z,2944.00
2018-06-01T05:28:46.628Z,2948.00
2018-06-01T05:29:46.635Z,2956.00
2018-06-01T05:30:46.575Z,2960.00
2018-06-01T05:31:46.703Z,2964.00
2018-06-01T05:32:46.574Z,2968.00
2018-06-01T05:33:46.655Z,2972.00
2018-06-01T05:34:46.590Z,2980.00
2018-06-01T05:35:46.586Z,2984.00
2018-06-01T05:36:46.804Z,2988.00
2018-06-01T05:37:46.607Z,2992.00
2018-06-01T05:38:46.532Z,3000.00
2018-06-01T05:39:46.556Z,3004.00
2018-06-01T05:40:46.681Z,3012.00
2018-06-01T05:41:46.664Z,3016.00
2018-06-01T05:42:46.844Z,3020.00
2018-06-01T05:43:46.717Z,3028.00
2018-06-01T05:44:46.758Z,3032.00
2018-06-01T05:45:46.500Z,3040.00
2018-06-01T05:46:47.031Z,3052.00
2018-06-01T05:47:46.492Z,3060.00
2018-06-01T05:48:46.624Z,3068.00
2018-06-01T05:49:46.593Z,3076.00
2018-06-01T05:50:46.612Z,3084.00
2018-06-01T05:51:46.507Z,3096.00
2018-06-01T05:52:46.458Z,3104.00
2018-06-01T05:53:46.587Z,3116.00
2018-06-01T05:54:46.416Z,3128.00
2018-06-01T05:55:46.454Z,3132.00
2018-06-01T05:56:46.453Z,3144.00
2018-06-01T05:57:46.525Z,3156.00
2018-06-01T05:58:46.641Z,3164.00
2018-06-01T05:59:46.756Z,3172.00
2018-06-01T06:00:46.538Z,3176.00
2018-06-01T06:01:46.470Z,3192.00
2018-06-01T06:02:46.378Z,3200.00
2018-06-01T06:03:46.314Z,3208.00
2018-06-01T06:04:46.369Z,3220.00
2018-06-01T06:05:46.382Z,3224.00
2018-06-01T06:06:46.273Z,3236.00
2018-06-01T06:07:46.366Z,3244.00
2018-06-01T06:08:46.613Z,3252.00
2018-06-01T06:09:46.294Z,3264.00
2018-06-01T06:10:46.569Z,3284.00
2018-06-01T06:11:46.410Z,3300.00
2018-06-01T06:12:46.402Z,3320.00
2018-06-01T06:13:46.561Z,3352.00
2018-06-01T06:14:46.448Z,3380.00
2018-06-01T06:15:46.446Z,3404.00
2018-06-01T06:16:46.497Z,3428.00
2018-06-01T06:17:46.412Z,3456.00
2018-06-01T06:18:46.315Z,3488.00
2018-06-01T06:19:46.337Z,3520.00
2018-06-01T06:20:46.278Z,3544.00
2018-06-01T06:21:47.168Z,3584.00
2018-06-01T06:22:46.265Z,3608.00
2018-06-01T06:23:46.372Z,3636.00
2018-06-01T06:24:46.496Z,3664.00
2018-06-01T06:25:46.261Z,3696.00
2018-06-01T06:26:46.244Z,3724.00
2018-06-01T06:27:46.309Z,3760.00
2018-06-01T06:28:46.366Z,3804.00
2018-06-01T06:29:46.168Z,3860.00
2018-06-01T06:30:46.275Z,3920.00
2018-06-01T06:31:46.326Z,4012.00
2018-06-01T06:33:46.444Z,4324.00
2018-06-01T06:34:46.217Z,4548.00
2018-06-01T06:35:46.172Z,4800.00
2018-06-01T06:36:46.596Z,5052.00
2018-06-01T06:37:46.206Z,5300.00
2018-06-01T06:38:46.215Z,5548.00
2018-06-01T06:39:47.044Z,5808.00
2018-06-01T06:40:46.207Z,6076.00
2018-06-01T06:42:46.198Z,6636.00
2018-06-01T06:43:46.183Z,6924.00
2018-06-01T06:44:46.372Z,7212.00
2018-06-01T06:45:47.028Z,7532.00
2018-06-01T06:46:46.095Z,7880.00
2018-06-01T06:47:46.274Z,8244.00
2018-06-01T06:48:46.097Z,8624.00
2018-06-01T06:49:46.169Z,9060.00
2018-06-01T06:50:46.046Z,9460.00
2018-06-01T06:51:46.690Z,10104.00
2018-06-01T06:52:46.024Z,11200.00
2018-06-01T06:53:45.971Z,12404.00
2018-06-01T06:54:45.975Z,13264.00
2018-06-01T06:55:46.074Z,13864.00
2018-06-01T06:56:46.094Z,14416.00
2018-06-01T06:57:46.065Z,14880.00
2018-06-01T06:58:46.631Z,15272.00
2018-06-01T06:59:45.989Z,15600.00
2018-06-01T07:00:45.978Z,15912.00
2018-06-01T07:01:46.013Z,16480.00
2018-06-01T07:02:46.097Z,16768.00
2018-06-01T07:03:45.943Z,17024.00
2018-06-01T07:04:45.949Z,17344.00
2018-06-01T07:05:46.064Z,17824.00
2018-06-01T07:06:45.955Z,18432.00
2018-06-01T07:07:45.918Z,18848.00
2018-06-01T07:08:45.910Z,19232.00
2018-06-01T07:09:46.069Z,19776.00
2018-06-01T07:10:46.677Z,20512.00
2018-06-01T07:11:46.096Z,21056.00
2018-06-01T07:12:45.968Z,21632.00
2018-06-01T07:13:45.870Z,22016.00
2018-06-01T07:14:46.008Z,22496.00
2018-06-01T07:15:45.901Z,22976.00
2018-06-01T07:16:45.953Z,23328.00
2018-06-01T07:17:46.023Z,23712.00
2018-06-01T07:18:45.951Z,24384.00
2018-06-01T07:19:45.968Z,24800.00
2018-06-01T07:20:45.981Z,25248.00
2018-06-01T07:21:46.591Z,25696.00
2018-06-01T07:22:46.015Z,25728.00
2018-06-01T07:23:45.930Z,25632.00
2018-06-01T07:24:46.037Z,26176.00
2018-06-01T07:25:45.942Z,26560.00
2018-06-01T07:26:46.145Z,26688.00
2018-06-01T07:27:46.057Z,26816.00
2018-06-01T07:28:45.918Z,27616.00
2018-06-01T07:29:46.111Z,28704.00
2018-06-01T07:30:46.088Z,29344.00
2018-06-01T07:31:45.977Z,29760.00
2018-06-01T07:32:45.948Z,30144.00
2018-06-01T07:33:45.984Z,31232.00
2018-06-01T07:34:45.988Z,32192.00
2018-06-01T07:35:46.143Z,30592.00
2018-06-01T07:36:45.925Z,28608.00
2018-06-01T07:37:46.076Z,27904.00
2018-06-01T07:38:46.197Z,28000.00
2018-06-01T07:39:46.456Z,28352.00
2018-06-01T07:40:45.998Z,28768.00
2018-06-01T07:41:45.949Z,28672.00
2018-06-01T07:42:45.902Z,28640.00
2018-06-01T07:43:45.848Z,28768.00
2018-06-01T07:44:45.840Z,28832.00
2018-06-01T07:45:45.975Z,28768.00
2018-06-01T07:46:45.894Z,28736.00
2018-06-01T07:47:46.028Z,28864.00
2018-06-01T07:48:45.963Z,28960.00
2018-06-01T07:49:46.011Z,28960.00
2018-06-01T07:50:46.014Z,29280.00
2018-06-01T07:51:46.698Z,29504.00
2018-06-01T07:52:45.913Z,29600.00
2018-06-01T07:53:46.102Z,29504.00
2018-06-01T07:54:48.852Z,29504.00
2018-06-01T07:55:46.314Z,29632.00
2018-06-01T07:57:46.203Z,29984.00
2018-06-01T07:58:45.979Z,29856.00
2018-06-01T07:59:45.967Z,29728.00
2018-06-01T08:00:46.545Z,29920.00
2018-06-01T08:01:46.039Z,30112.00
2018-06-01T08:03:46.121Z,29600.00
2018-06-01T08:04:46.148Z,29600.00
2018-06-01T08:05:46.156Z,29856.00
2018-06-01T08:06:46.037Z,29952.00
2018-06-01T08:07:46.400Z,30016.00
2018-06-01T08:08:45.851Z,30272.00
2018-06-01T08:09:45.964Z,30816.00
2018-06-01T08:10:46.144Z,31168.00
2018-06-01T08:11:45.903Z,31360.00
2018-06-01T08:12:45.838Z,31552.00
2018-06-01T08:13:46.762Z,32384.00
2018-06-01T08:14:45.914Z,32544.00
2018-06-01T08:17:46.144Z,29504.00
2018-06-01T08:18:46.272Z,29248.00
2018-06-01T08:19:46.194Z,29760.00
2018-06-01T08:20:46.059Z,29984.00
2018-06-01T08:21:46.065Z,29728.00
2018-06-01T08:22:45.950Z,29632.00
2018-06-01T08:23:46.080Z,29344.00
2018-06-01T08:24:46.025Z,29440.00
2018-06-01T08:25:45.948Z,29664.00
2018-06-01T08:26:46.010Z,29664.00
2018-06-01T08:27:45.869Z,29600.00
2018-06-01T08:28:45.982Z,29568.00
2018-06-01T08:29:45.899Z,29664.00
2018-06-01T08:30:46.071Z,29632.00
2018-06-01T08:31:45.957Z,29792.00
2018-06-01T08:32:46.053Z,29984.00
2018-06-01T08:33:45.998Z,30112.00
2018-06-01T08:34:45.993Z,30208.00
2018-06-01T08:35:46.101Z,30112.00
2018-06-01T08:36:46.004Z,30176.00
2018-06-01T08:37:46.219Z,30464.00
2018-06-01T08:38:45.991Z,30688.00
2018-06-01T08:39:46.047Z,30880.00
2018-06-01T08:40:46.094Z,30848.00
2018-06-01T08:41:46.256Z,30816.00
2018-06-01T08:42:46.154Z,31008.00
2018-06-01T08:43:46.182Z,31104.00
2018-06-01T08:44:46.069Z,31168.00
2018-06-01T08:45:46.231Z,31264.00
2018-06-01T08:46:46.234Z,31168.00
2018-06-01T08:47:46.187Z,31232.00
2018-06-01T08:48:46.001Z,31616.00
2018-06-01T08:49:46.384Z,31904.00
2018-06-01T08:50:46.050Z,32000.00
2018-06-01T08:51:46.066Z,32256.00
2018-06-01T08:52:46.660Z,32224.00
2018-06-01T08:53:46.201Z,31840.00
2018-06-01T08:54:46.420Z,32096.00
2018-06-01T08:55:47.951Z,32384.00
2018-06-01T08:56:46.114Z,32576.00
2018-06-01T08:57:46.329Z,32768.00
2018-06-01T08:58:46.933Z,32768.00
2018-06-01T08:59:46.151Z,32896.00
2018-06-01T09:00:46.144Z,32864.00
2018-06-01T09:01:46.051Z,33216.00
2018-06-01T09:02:46.602Z,34016.00
2018-06-01T09:03:46.351Z,34784.00
2018-06-01T09:04:48.723Z,35040.00
2018-06-01T09:05:46.075Z,34592.00
2018-06-01T09:06:46.603Z,34144.00
2018-06-01T09:07:46.670Z,33568.00
2018-06-01T09:08:46.252Z,33568.00
2018-06-01T09:09:46.754Z,33728.00
2018-06-01T09:10:46.348Z,33728.00
2018-06-01T09:11:46.496Z,33664.00
2018-06-01T09:12:47.218Z,33696.00
2018-06-01T09:13:46.181Z,33984.00
2018-06-01T09:14:47.174Z,34112.00
2018-06-01T09:15:46.342Z,33952.00
2018-06-01T09:16:46.361Z,33920.00
2018-06-01T09:17:46.197Z,34048.00
2018-06-01T09:18:46.265Z,34144.00
2018-06-01T09:19:46.254Z,34176.00
2018-06-01T09:20:46.351Z,34112.00
2018-06-01T09:21:46.244Z,34176.00
2018-06-01T09:22:46.345Z,34496.00
2018-06-01T09:23:46.277Z,34880.00
2018-06-01T09:24:46.216Z,34976.00
2018-06-01T09:25:46.215Z,35104.00
2018-06-01T09:26:46.305Z,35072.00
2018-06-01T09:27:46.293Z,35040.00
2018-06-01T09:28:46.335Z,34848.00
2018-06-01T09:29:46.267Z,34784.00
2018-06-01T09:30:46.275Z,34912.00
2018-06-01T09:31:46.311Z,35136.00
2018-06-01T09:32:46.334Z,35680.00
2018-06-01T09:33:46.435Z,36352.00
2018-06-01T09:34:46.359Z,36832.00
2018-06-01T09:35:46.321Z,37376.00
2018-06-01T09:36:46.504Z,37440.00
2018-06-01T09:37:46.360Z,37088.00
2018-06-01T09:38:47.228Z,36768.00
2018-06-01T09:39:46.407Z,36320.00
2018-06-01T09:40:46.358Z,36288.00
2018-06-01T09:41:46.439Z,36320.00
2018-06-01T09:42:46.444Z,36576.00
2018-06-01T09:43:46.389Z,36992.00
2018-06-01T09:44:46.391Z,37184.00
2018-06-01T09:45:46.565Z,37536.00
2018-06-01T09:46:46.775Z,37952.00
2018-06-01T09:47:47.291Z,38144.00
2018-06-01T09:48:46.793Z,38496.00
2018-06-01T09:49:46.503Z,39488.00
2018-06-01T09:50:46.504Z,21856.00
2018-06-01T09:51:46.470Z,23584.00
2018-06-01T09:52:46.716Z,40672.00
2018-06-01T09:53:46.575Z,27488.00
2018-06-01T09:54:46.509Z,45408.00
2018-06-01T09:55:46.695Z,22208.00
2018-06-01T09:56:46.561Z,14400.00
2018-06-01T09:57:46.558Z,41920.00
2018-06-01T09:58:46.610Z,39264.00
2018-06-01T09:59:46.767Z,31008.00
2018-06-01T10:00:46.818Z,40768.00
2018-06-01T10:01:46.740Z,40224.00
2018-06-01T10:02:46.747Z,39744.00
2018-06-01T10:03:46.674Z,39008.00
2018-06-01T10:04:46.685Z,38816.00
2018-06-01T10:05:46.587Z,38784.00
2018-06-01T10:06:46.693Z,38912.00
2018-06-01T10:07:46.724Z,39104.00
2018-06-01T10:08:46.768Z,39424.00
2018-06-01T10:09:46.689Z,39648.00
2018-06-01T10:10:46.772Z,39584.00
2018-06-01T10:11:46.686Z,39520.00
2018-06-01T10:12:46.710Z,39968.00
2018-06-01T10:13:46.800Z,40736.00
2018-06-01T10:14:46.841Z,41792.00
2018-06-01T10:15:46.854Z,41984.00
2018-06-01T10:16:46.833Z,35584.00
2018-06-01T10:17:46.898Z,35712.00
2018-06-01T10:18:46.743Z,42816.00
2018-06-01T10:19:46.792Z,30240.00
2018-06-01T10:20:46.884Z,27008.00
2018-06-01T10:21:46.828Z,25024.00
2018-06-01T10:22:46.849Z,50816.00
2018-06-01T10:23:47.667Z,37696.00
2018-06-01T10:24:46.963Z,41248.00
2018-06-01T10:25:46.917Z,24544.00
2018-06-01T10:26:46.859Z,28192.00
2018-06-01T10:27:46.787Z,14660.00
2018-06-01T10:28:46.858Z,15392.00
2018-06-01T10:29:47.734Z,17176.00
2018-06-01T10:30:48.656Z,13388.00
2018-06-01T10:31:46.877Z,13136.00
2018-06-01T10:32:46.963Z,13428.00
2018-06-01T10:33:46.976Z,13784.00
2018-06-01T10:34:47.072Z,14596.00
2018-06-01T10:35:46.977Z,16024.00
2018-06-01T10:36:47.038Z,57824.00
2018-06-01T10:37:47.156Z,53536.00
2018-06-01T10:38:47.533Z,14952.00
2018-06-01T10:39:47.724Z,44128.00
2018-06-01T10:40:47.071Z,56448.00
2018-06-01T10:41:47.114Z,56608.00
2018-06-01T10:42:47.472Z,55840.00
2018-06-01T10:43:47.188Z,55328.00
2018-06-01T10:44:47.029Z,55200.00
2018-06-01T10:45:46.990Z,56704.00
2018-06-01T10:46:47.661Z,58080.00
2018-06-01T10:47:47.205Z,57440.00
2018-06-01T10:48:47.381Z,56352.00
2018-06-01T10:49:47.129Z,56128.00
2018-06-01T10:50:47.158Z,58080.00
2018-06-01T10:51:47.049Z,60480.00
2018-06-01T10:52:46.953Z,61440.00
2018-06-01T10:53:47.039Z,60288.00
2018-06-01T10:54:47.208Z,59008.00
2018-06-01T10:55:47.046Z,61056.00
2018-06-01T10:56:47.099Z,64736.00
2018-06-01T10:57:47.314Z,66272.00
2018-06-01T10:58:47.071Z,65024.00
2018-06-01T10:59:47.153Z,64352.00
2018-06-01T11:00:47.570Z,64192.00
2018-06-01T11:01:47.109Z,65664.00
2018-06-01T11:02:47.694Z,68512.00
2018-06-01T11:03:47.203Z,70272.00
2018-06-01T11:04:47.153Z,70368.00
2018-06-01T11:05:47.121Z,71232.00
2018-06-01T11:06:47.733Z,73152.00
2018-06-01T11:07:47.190Z,73824.00
2018-06-01T11:08:48.153Z,72928.00
2018-06-01T11:09:47.190Z,73056.00
2018-06-01T11:10:47.152Z,77216.00
2018-06-01T11:11:47.444Z,82176.00
2018-06-01T11:12:47.268Z,79520.00
2018-06-01T11:13:47.324Z,77280.00
2018-06-01T11:14:47.208Z,80256.00
2018-06-01T11:15:47.207Z,80864.00
2018-06-01T11:16:47.244Z,75488.00
2018-06-01T11:17:47.350Z,72320.00
2018-06-01T11:18:48.357Z,74688.00
2018-06-01T11:19:47.307Z,78880.00
2018-06-01T11:20:48.233Z,81696.00
2018-06-01T11:21:47.364Z,81440.00
2018-06-01T11:22:47.331Z,78496.00
2018-06-01T11:23:47.361Z,79008.00
2018-06-01T11:24:47.340Z,81408.00
2018-06-01T11:25:47.395Z,81152.00
2018-06-01T11:26:47.424Z,78048.00
2018-06-01T11:27:47.355Z,77376.00
2018-06-01T11:28:47.398Z,79456.00
2018-06-01T11:29:47.425Z,81568.00
2018-06-01T11:30:47.429Z,79936.00
2018-06-01T11:31:47.482Z,79744.00
2018-06-01T11:32:47.487Z,81216.00
2018-06-01T11:33:47.556Z,81248.00
2018-06-01T11:34:47.484Z,78496.00
2018-06-01T11:35:47.505Z,78784.00
2018-06-01T11:36:47.516Z,83168.00
2018-06-01T11:37:47.572Z,85888.00
2018-06-01T11:38:47.572Z,82560.00
2018-06-01T11:39:47.529Z,79168.00
2018-06-01T11:40:47.575Z,78656.00
2018-06-01T11:41:47.595Z,81408.00
2018-06-01T11:42:47.595Z,81280.00
2018-06-01T11:43:48.191Z,79808.00
2018-06-01T11:44:47.565Z,79168.00
2018-06-01T11:45:47.623Z,79968.00
2018-06-01T11:46:47.599Z,80704.00
2018-06-01T11:47:47.623Z,81152.00
2018-06-01T11:48:48.238Z,81216.00
2018-06-01T11:49:47.655Z,81536.00
2018-06-01T11:50:48.210Z,83264.00
2018-06-01T11:51:47.703Z,85472.00
2018-06-01T11:52:47.692Z,84960.00
2018-06-01T11:53:47.685Z,84960.00
2018-06-01T11:54:47.736Z,85120.00
2018-06-01T11:55:47.774Z,85248.00
2018-06-01T11:56:47.766Z,85472.00
2018-06-01T11:57:47.748Z,86720.00
2018-06-01T11:58:47.746Z,89280.00
2018-06-01T11:59:47.844Z,89600.00
2018-06-01T12:00:47.881Z,86752.00
2018-06-01T12:01:47.821Z,84832.00
2018-06-01T12:02:47.816Z,85696.00
2018-06-01T12:03:47.829Z,87040.00
2018-06-01T12:04:47.898Z,87488.00
2018-06-01T12:05:47.943Z,83968.00
2018-06-01T12:06:48.080Z,83840.00
2018-06-01T12:07:47.920Z,79392.00
2018-06-01T12:08:47.993Z,85216.00
2018-06-01T12:09:47.922Z,85376.00
2018-06-01T12:10:47.943Z,85920.00
2018-06-01T12:11:47.950Z,86784.00
2018-06-01T12:12:47.953Z,87200.00
2018-06-01T12:13:47.977Z,89184.00
2018-06-01T12:14:47.977Z,94496.00